Terminal Aerodrome Forecast
Issued by NWS Greer, SC

Home | Current Version | Previous Version | Text Only | Print | Product List | Glossary On
Versions: 1 2 3 4 5 6 7 8 9 10 11 12 13 14 15 16 17 18 19 20 21 22 23 24 25 26 27 28 29 30 31 32 33 34 35 36 37 38 39 40 41 42 43 44 45 46
000
FTUS42 KGSP 200500
TAFAVL
TAF
KAVL 200520Z 2006/2106 00000KT P6SM SCT035 OVC060
     FM200800 11003KT 1 1/2SM BR BKN008
      TEMPO 2009/2013 00000KT 1/4SM FG BKN002
     FM201400 00000KT P6SM SCT017
     FM201500 13003KT P6SM SCT250
     FM201800 14005KT P6SM FEW250
     FM210000 33003KT P6SM FEW250=

USA.gov is the U.S. government's official web portal to all federal, state and local government web resources and services.